Time;durP1;ratioP1;P1;durP2;ratioP2;P2;SDS_P1;SDS_P2;PMS_P1;PMS_P2;Temp;Humidity;BMP_temperature;BMP_pressure;BME280_temperature;BME280_humidity;BME280_pressure;Samples;Min_cycle;Max_cycle;Signal;HPM_P1;HPM_P2
2023/10/25 06:07:51;;;;;;;;;4.67;2.67;;;;;;;;6264826;22;45846;-73
2023/10/25 06:10:16;;;;;;;;;3.00;2.00;;;;;;;;6308252;22;45237;-76
2023/10/25 06:12:41;;;;;;;;;0.67;0.67;;;;;;;;6309528;22;45202;-73
2023/10/25 06:15:07;;;;;;;;;1.00;1.00;;;;;;;;6309770;22;45230;-74
2023/10/25 06:17:33;;;;;;;;;4.00;2.00;;;;;;;;6309377;22;45385;-74
2023/10/25 06:19:58;;;;;;;;;1.00;1.00;;;;;;;;6308370;22;45226;-75
2023/10/25 06:22:23;;;;;;;;;4.00;2.00;;;;;;;;6309190;22;45265;-75
2023/10/25 06:24:49;;;;;;;;;2.00;2.00;;;;;;;;6281590;22;46013;-76
2023/10/25 06:27:14;;;;;;;;;2.00;2.00;;;;;;;;6309524;22;46047;-75
2023/10/25 06:29:39;;;;;;;;;2.00;1.00;;;;;;;;6309759;22;45297;-75
2023/10/25 06:32:05;;;;;;;;;1.00;1.00;;;;;;;;6309983;22;45206;-75
2023/10/25 06:34:30;;;;;;;;;0.00;0.00;;;;;;;;6304359;22;45136;-72
2023/10/25 06:36:55;;;;;;;;;1.00;1.00;;;;;;;;6306782;22;45565;-73
2023/10/25 06:39:20;;;;;;;;;1.00;1.00;;;;;;;;6307562;22;44900;-72
2023/10/25 06:41:46;;;;;;;;;1.33;1.33;;;;;;;;6279291;22;44662;-74
2023/10/25 06:44:11;;;;;;;;;3.67;1.00;;;;;;;;6307284;22;45167;-72
2023/10/25 06:46:37;;;;;;;;;3.00;1.00;;;;;;;;6307995;22;45143;-72
2023/10/25 06:49:02;;;;;;;;;3.00;0.00;;;;;;;;6307324;22;45286;-72
2023/10/25 06:51:27;;;;;;;;;2.00;0.33;;;;;;;;6308123;22;45489;-72
2023/10/25 06:53:53;;;;;;;;;3.00;1.67;;;;;;;;6307844;22;45264;-72
2023/10/25 06:56:18;;;;;;;;;0.00;0.00;;;;;;;;6307280;22;47256;-72
2023/10/25 06:58:44;;;;;;;;;1.00;0.00;;;;;;;;6308972;22;45216;-72
2023/10/25 07:01:11;;;;;;;;;0.67;0.00;;;;;;;;6307361;22;45220;-73
2023/10/25 07:03:37;;;;;;;;;0.00;0.00;;;;;;;;6279652;22;46225;-73
2023/10/25 07:06:03;;;;;;;;;0.00;0.00;;;;;;;;6306737;22;45373;-73
2023/10/25 07:08:31;;;;;;;;;1.00;1.00;;;;;;;;6327397;22;44766;-72
2023/10/25 07:10:57;;;;;;;;;0.00;0.00;;;;;;;;6339269;22;45212;-73
2023/10/25 07:13:24;;;;;;;;;0.00;0.00;;;;;;;;6339025;22;45255;-74
2023/10/25 07:15:49;;;;;;;;;0.00;0.00;;;;;;;;6339465;22;45175;-73
2023/10/25 07:18:14;;;;;;;;;0.33;0.33;;;;;;;;6338056;22;45299;-73
2023/10/25 07:20:39;;;;;;;;;0.67;0.00;;;;;;;;6311002;22;45281;-75
2023/10/25 07:23:05;;;;;;;;;1.00;1.00;;;;;;;;6338044;22;45314;-74
2023/10/25 07:25:30;;;;;;;;;2.67;1.00;;;;;;;;6337139;22;45309;-74
2023/10/25 07:27:55;;;;;;;;;1.00;1.00;;;;;;;;6339157;22;45373;-73
2023/10/25 07:30:21;;;;;;;;;1.33;0.00;;;;;;;;6310933;22;45472;-73
2023/10/25 07:32:46;;;;;;;;;0.00;0.00;;;;;;;;6338276;22;45353;-73
2023/10/25 07:35:11;;;;;;;;;1.00;1.00;;;;;;;;6338326;22;45241;-73
2023/10/25 07:37:36;;;;;;;;;1.00;1.00;;;;;;;;6339748;22;45552;-73
2023/10/25 07:40:05;;;;;;;;;1.00;1.00;;;;;;;;6340388;22;45321;-72
2023/10/25 07:42:30;;;;;;;;;1.00;1.00;;;;;;;;6340077;22;45243;-73
2023/10/25 07:44:57;;;;;;;;;1.00;1.00;;;;;;;;6311054;22;46721;-72
2023/10/25 07:47:22;;;;;;;;;1.00;1.00;;;;;;;;6311159;22;45255;-72
2023/10/25 07:49:47;;;;;;;;;2.67;1.00;;;;;;;;6340786;22;45491;-73
2023/10/25 07:52:13;;;;;;;;;0.00;0.00;;;;;;;;6339494;22;44725;-72
2023/10/25 07:54:38;;;;;;;;;0.00;0.00;;;;;;;;6340480;22;44939;-72
2023/10/25 07:57:03;;;;;;;;;0.00;0.00;;;;;;;;6340151;22;45132;-72
2023/10/25 07:59:29;;;;;;;;;0.00;0.00;;;;;;;;6340834;22;45140;-72
2023/10/25 08:01:56;;;;;;;;;0.00;0.00;;;;;;;;6339769;22;45577;-72
2023/10/25 08:04:21;;;;;;;;;0.00;0.00;;;;;;;;6339780;22;45513;-72
2023/10/25 08:06:46;;;;;;;;;0.67;0.67;;;;;;;;6339549;22;45357;-72
2023/10/25 08:09:11;;;;;;;;;0.00;0.00;;;;;;;;6310061;22;45341;-72
2023/10/25 08:11:37;;;;;;;;;2.00;0.00;;;;;;;;6339932;22;45306;-72
2023/10/25 08:14:02;;;;;;;;;0.00;0.00;;;;;;;;6340398;22;45270;-72
2023/10/25 08:16:28;;;;;;;;;0.00;0.00;;;;;;;;6339949;22;45226;-73
2023/10/25 08:18:53;;;;;;;;;1.00;1.00;;;;;;;;6340590;22;45226;-72
2023/10/25 08:21:19;;;;;;;;;0.00;0.00;;;;;;;;6339747;22;45283;-72
2023/10/25 08:23:51;;;;;;;;;0.00;0.00;;;;;;;;6340091;22;45351;-73
2023/10/25 08:26:16;;;;;;;;;0.33;0.33;;;;;;;;6340116;22;45262;-73
2023/10/25 08:28:41;;;;;;;;;0.00;0.00;;;;;;;;6311986;22;45320;-72
2023/10/25 08:31:10;;;;;;;;;1.67;0.00;;;;;;;;6340620;22;45234;-73
2023/10/25 08:33:36;;;;;;;;;0.00;0.00;;;;;;;;6340287;22;45536;-73
2023/10/25 08:36:01;;;;;;;;;0.00;0.00;;;;;;;;6340376;22;45238;-72
2023/10/25 08:38:26;;;;;;;;;0.00;0.00;;;;;;;;6311141;22;45275;-72
2023/10/25 08:40:52;;;;;;;;;0.00;0.00;;;;;;;;6340619;22;45171;-72
2023/10/25 08:43:19;;;;;;;;;0.00;0.00;;;;;;;;6339885;22;45580;-72
2023/10/25 08:45:44;;;;;;;;;0.00;0.00;;;;;;;;6337105;22;45281;-72
2023/10/25 08:48:09;;;;;;;;;0.67;0.67;;;;;;;;6337313;22;45383;-72
2023/10/25 08:50:35;;;;;;;;;1.00;1.00;;;;;;;;6339396;22;45232;-73
2023/10/25 08:53:01;;;;;;;;;0.67;0.67;;;;;;;;6337878;22;45279;-73
2023/10/25 08:55:26;;;;;;;;;0.00;0.00;;;;;;;;6339554;22;45250;-73
2023/10/25 08:57:55;;;;;;;;;0.00;0.00;;;;;;;;6338734;22;45272;-72
2023/10/25 09:00:21;;;;;;;;;0.00;0.00;;;;;;;;6338703;22;45387;-72
2023/10/25 09:02:46;;;;;;;;;4.00;2.00;;;;;;;;6337966;22;45433;-73
2023/10/25 09:05:11;;;;;;;;;5.33;5.33;;;;;;;;6310643;22;46036;-72
2023/10/25 09:07:37;;;;;;;;;8.00;8.00;;;;;;;;6338396;22;45305;-72
2023/10/25 09:10:03;;;;;;;;;5.33;5.33;;;;;;;;6338157;22;45192;-72
2023/10/25 09:12:29;;;;;;;;;3.67;3.67;;;;;;;;6338311;22;46565;-72
2023/10/25 09:14:54;;;;;;;;;2.00;2.00;;;;;;;;6337109;22;45250;-72
2023/10/25 09:17:19;;;;;;;;;1.00;1.00;;;;;;;;6339350;22;45135;-72
2023/10/25 09:19:45;;;;;;;;;1.33;0.00;;;;;;;;6338654;22;45143;-72
2023/10/25 09:22:25;;;;;;;;;1.00;1.00;;;;;;;;6337394;22;46068;-72
2023/10/25 09:24:51;;;;;;;;;2.00;0.67;;;;;;;;6338255;22;45243;-72
2023/10/25 09:27:19;;;;;;;;;0.00;0.00;;;;;;;;6338449;22;45499;-73
2023/10/25 09:29:45;;;;;;;;;0.00;0.00;;;;;;;;6339028;22;45377;-73
2023/10/25 09:32:10;;;;;;;;;1.33;1.33;;;;;;;;6337524;22;45303;-73
2023/10/25 09:34:38;;;;;;;;;3.67;3.67;;;;;;;;6339818;22;45187;-72
2023/10/25 09:37:04;;;;;;;;;1.00;1.00;;;;;;;;6339304;22;45231;-73
2023/10/25 09:39:32;;;;;;;;;2.00;1.00;;;;;;;;6339744;22;45278;-73
2023/10/25 09:42:01;;;;;;;;;2.00;1.00;;;;;;;;6338986;22;45604;-72
2023/10/25 09:44:31;;;;;;;;;1.00;1.00;;;;;;;;6340953;22;45223;-71
2023/10/25 09:46:58;;;;;;;;;1.00;1.00;;;;;;;;6340694;22;45251;-72
2023/10/25 09:49:27;;;;;;;;;2.33;2.33;;;;;;;;6341367;22;45161;-71
2023/10/25 09:52:07;;;;;;;;;0.33;0.33;;;;;;;;6339936;22;45298;-71
2023/10/25 09:54:33;;;;;;;;;1.67;1.00;;;;;;;;6340926;22;45373;-71
2023/10/25 09:56:59;;;;;;;;;1.00;1.00;;;;;;;;6341022;22;45169;-71
2023/10/25 09:59:26;;;;;;;;;3.33;2.00;;;;;;;;6341104;22;45176;-71
2023/10/25 10:01:52;;;;;;;;;1.67;0.00;;;;;;;;6340851;22;45278;-72
2023/10/25 10:04:22;;;;;;;;;1.00;1.00;;;;;;;;6341108;22;45395;-71
2023/10/25 10:07:06;;;;;;;;;1.00;1.00;;;;;;;;6340868;22;45154;-72
2023/10/25 10:09:35;;;;;;;;;0.33;0.33;;;;;;;;6341464;22;44593;-72
2023/10/25 10:12:05;;;;;;;;;3.00;1.00;;;;;;;;6340379;22;45644;-72
2023/10/25 10:14:35;;;;;;;;;1.00;1.00;;;;;;;;6341182;22;44624;-72
2023/10/25 10:17:09;;;;;;;;;1.00;1.00;;;;;;;;6340852;22;45386;-71
2023/10/25 10:19:39;;;;;;;;;2.00;2.00;;;;;;;;6338968;22;44791;-72
2023/10/25 10:22:07;;;;;;;;;0.00;0.00;;;;;;;;6340316;22;45413;-72
2023/10/25 10:24:43;;;;;;;;;1.67;1.67;;;;;;;;6340896;22;45086;-72
2023/10/25 10:27:09;;;;;;;;;1.00;1.00;;;;;;;;6340633;22;44699;-72
2023/10/25 10:29:34;;;;;;;;;2.00;2.00;;;;;;;;6340449;22;45162;-72
2023/10/25 10:32:00;;;;;;;;;3.33;2.67;;;;;;;;6340822;22;45068;-72
2023/10/25 10:34:41;;;;;;;;;0.00;0.00;;;;;;;;6340996;22;45343;-72
2023/10/25 10:37:07;;;;;;;;;1.00;1.00;;;;;;;;6312539;22;45263;-72
2023/10/25 10:39:33;;;;;;;;;1.00;1.00;;;;;;;;6340946;22;45312;-72
2023/10/25 10:42:01;;;;;;;;;1.00;1.00;;;;;;;;6340796;22;45293;-72
2023/10/25 10:44:26;;;;;;;;;1.67;1.67;;;;;;;;6340477;22;45324;-72
2023/10/25 10:46:54;;;;;;;;;1.00;1.00;;;;;;;;6340751;22;45251;-72
2023/10/25 10:49:22;;;;;;;;;2.00;2.00;;;;;;;;6340980;22;45111;-73
2023/10/25 10:51:49;;;;;;;;;4.00;4.00;;;;;;;;6338186;22;45293;-73
2023/10/25 10:54:14;;;;;;;;;3.00;3.00;;;;;;;;6340247;22;45583;-72
2023/10/25 10:56:39;;;;;;;;;4.00;3.00;;;;;;;;6340795;22;45272;-73
2023/10/25 10:59:06;;;;;;;;;4.00;4.00;;;;;;;;6340181;22;45471;-73
2023/10/25 11:01:31;;;;;;;;;3.67;3.67;;;;;;;;6340263;22;45302;-72
2023/10/25 11:03:57;;;;;;;;;6.00;5.00;;;;;;;;6340733;22;45265;-72
2023/10/25 11:06:24;;;;;;;;;3.33;3.33;;;;;;;;6340039;22;45268;-72
2023/10/25 11:08:49;;;;;;;;;2.00;2.00;;;;;;;;6340295;22;45422;-73
2023/10/25 11:11:14;;;;;;;;;3.00;2.00;;;;;;;;6310652;22;46457;-74
2023/10/25 11:13:40;;;;;;;;;3.00;2.00;;;;;;;;6312132;22;45248;-74
2023/10/25 11:16:10;;;;;;;;;2.00;2.00;;;;;;;;6340982;22;44699;-74
2023/10/25 11:18:35;;;;;;;;;2.33;2.00;;;;;;;;6340096;22;45502;-72
2023/10/25 11:21:00;;;;;;;;;3.33;2.00;;;;;;;;6340913;22;45330;-73
2023/10/25 11:23:26;;;;;;;;;2.33;1.00;;;;;;;;6340218;22;45274;-72
2023/10/25 11:25:51;;;;;;;;;2.33;2.00;;;;;;;;6341386;22;45383;-71
2023/10/25 11:28:18;;;;;;;;;2.00;2.00;;;;;;;;6340945;22;44673;-71
2023/10/25 11:30:44;;;;;;;;;3.00;2.00;;;;;;;;6340540;22;46512;-72
2023/10/25 11:33:09;;;;;;;;;2.00;2.00;;;;;;;;6340411;22;44648;-71
2023/10/25 11:35:36;;;;;;;;;1.33;1.33;;;;;;;;6341103;22;45250;-72
2023/10/25 11:38:02;;;;;;;;;1.33;1.00;;;;;;;;6340175;22;45195;-71
2023/10/25 11:40:42;;;;;;;;;1.00;1.00;;;;;;;;6340763;22;45213;-72
2023/10/25 11:43:08;;;;;;;;;2.00;2.00;;;;;;;;6340301;22;45317;-71
2023/10/25 11:45:34;;;;;;;;;2.00;2.00;;;;;;;;6340700;22;45358;-71
2023/10/25 11:47:59;;;;;;;;;3.67;3.00;;;;;;;;6340384;22;45342;-71
2023/10/25 11:50:24;;;;;;;;;7.67;5.33;;;;;;;;6340174;22;45632;-71
2023/10/25 11:52:49;;;;;;;;;1.00;0.67;;;;;;;;6311488;22;45436;-73
2023/10/25 11:55:15;;;;;;;;;0.00;0.00;;;;;;;;6340909;22;45263;-72
2023/10/25 11:57:42;;;;;;;;;1.00;1.00;;;;;;;;6309148;22;45631;-73
2023/10/25 12:00:08;;;;;;;;;0.00;0.00;;;;;;;;6340254;22;44981;-70
2023/10/25 12:02:34;;;;;;;;;1.33;1.33;;;;;;;;6340223;22;45256;-72
2023/10/25 12:05:01;;;;;;;;;2.00;1.00;;;;;;;;6310977;22;45301;-71
2023/10/25 12:07:26;;;;;;;;;1.00;1.00;;;;;;;;6336101;22;45330;-74
2023/10/25 12:09:52;;;;;;;;;0.67;0.67;;;;;;;;6336863;22;46121;-73
2023/10/25 12:12:18;;;;;;;;;2.00;0.33;;;;;;;;6337956;22;45306;-73
2023/10/25 12:14:43;;;;;;;;;2.00;1.00;;;;;;;;6339226;22;45298;-71
2023/10/25 12:17:09;;;;;;;;;1.00;1.00;;;;;;;;6337371;22;45500;-72
2023/10/25 12:19:39;;;;;;;;;2.00;2.00;;;;;;;;6339555;22;45711;-72
2023/10/25 12:22:08;;;;;;;;;2.00;2.00;;;;;;;;6337945;22;45295;-72
2023/10/25 12:24:34;;;;;;;;;1.00;1.00;;;;;;;;6337484;22;45316;-71
2023/10/25 12:27:00;;;;;;;;;0.67;0.67;;;;;;;;6338796;22;45262;-72
2023/10/25 12:29:25;;;;;;;;;2.00;2.00;;;;;;;;6311191;22;45432;-71
2023/10/25 12:31:50;;;;;;;;;2.00;1.00;;;;;;;;6338091;22;45181;-71
2023/10/25 12:34:15;;;;;;;;;4.00;1.00;;;;;;;;6339978;22;45151;-71
2023/10/25 12:36:41;;;;;;;;;3.67;2.00;;;;;;;;6339227;22;45132;-71
2023/10/25 12:39:06;;;;;;;;;1.67;1.00;;;;;;;;6339979;22;45085;-72
2023/10/25 12:41:32;;;;;;;;;1.00;1.00;;;;;;;;6311090;22;45248;-71
2023/10/25 12:43:58;;;;;;;;;1.67;1.00;;;;;;;;6340066;22;45251;-70
2023/10/25 12:46:23;;;;;;;;;2.00;2.00;;;;;;;;6310960;22;46291;-71
2023/10/25 12:48:48;;;;;;;;;2.00;0.33;;;;;;;;6339926;22;46172;-73
2023/10/25 12:51:13;;;;;;;;;1.00;1.00;;;;;;;;6339513;22;45188;-72
2023/10/25 12:53:38;;;;;;;;;1.00;1.00;;;;;;;;6339729;22;45357;-71
2023/10/25 12:56:04;;;;;;;;;1.33;1.00;;;;;;;;6339803;22;45151;-71
2023/10/25 12:58:29;;;;;;;;;1.67;1.33;;;;;;;;6339195;22;46471;-71
2023/10/25 13:00:55;;;;;;;;;1.00;1.00;;;;;;;;6339514;22;45294;-71
2023/10/25 13:03:20;;;;;;;;;1.00;1.00;;;;;;;;6311397;22;45526;-71
2023/10/25 13:05:45;;;;;;;;;1.00;1.00;;;;;;;;6339747;22;45599;-71
2023/10/25 13:08:11;;;;;;;;;3.00;3.00;;;;;;;;6338423;22;45204;-71
2023/10/25 13:10:36;;;;;;;;;0.00;0.00;;;;;;;;6311518;22;45820;-72
2023/10/25 13:13:01;;;;;;;;;0.00;0.00;;;;;;;;6339489;22;45238;-71
2023/10/25 13:15:26;;;;;;;;;2.00;0.67;;;;;;;;6340318;22;45524;-72
2023/10/25 13:17:52;;;;;;;;;0.33;0.33;;;;;;;;6340427;22;45802;-72
2023/10/25 13:20:17;;;;;;;;;1.00;1.00;;;;;;;;6341001;22;45171;-72
2023/10/25 13:22:43;;;;;;;;;1.33;0.67;;;;;;;;6339369;22;45353;-72
2023/10/25 13:25:08;;;;;;;;;0.00;0.00;;;;;;;;6340226;22;45279;-73
2023/10/25 13:27:33;;;;;;;;;0.00;0.00;;;;;;;;6340718;22;45291;-72
2023/10/25 13:29:59;;;;;;;;;0.00;0.00;;;;;;;;6341180;22;45298;-73
2023/10/25 13:32:26;;;;;;;;;0.00;0.00;;;;;;;;6311908;22;45293;-72
2023/10/25 13:34:52;;;;;;;;;0.00;0.00;;;;;;;;6340603;22;45360;-73
2023/10/25 13:37:17;;;;;;;;;0.00;0.00;;;;;;;;6339933;22;45245;-71
2023/10/25 13:39:42;;;;;;;;;1.00;1.00;;;;;;;;6341468;22;45264;-71
2023/10/25 13:42:07;;;;;;;;;4.00;4.00;;;;;;;;6340904;22;45242;-71
2023/10/25 13:44:33;;;;;;;;;1.67;1.67;;;;;;;;6340997;22;45199;-72
2023/10/25 13:46:58;;;;;;;;;0.00;0.00;;;;;;;;6312251;22;47190;-71
2023/10/25 13:49:23;;;;;;;;;0.00;0.00;;;;;;;;6341031;22;45218;-71
2023/10/25 13:51:50;;;;;;;;;1.00;1.00;;;;;;;;6340774;22;45235;-73
2023/10/25 13:54:16;;;;;;;;;1.00;0.67;;;;;;;;6342275;22;45473;-72
2023/10/25 13:56:41;;;;;;;;;1.00;1.00;;;;;;;;6341449;22;45244;-72
2023/10/25 13:59:06;;;;;;;;;0.33;0.33;;;;;;;;6342973;22;45250;-72
2023/10/25 14:01:31;;;;;;;;;0.00;0.00;;;;;;;;6339240;22;44691;-72
2023/10/25 14:03:57;;;;;;;;;1.00;0.67;;;;;;;;6340012;22;45525;-73
2023/10/25 14:06:22;;;;;;;;;1.00;1.00;;;;;;;;6340398;22;45210;-71
2023/10/25 14:08:47;;;;;;;;;0.00;0.00;;;;;;;;6340344;22;45238;-71
2023/10/25 14:11:12;;;;;;;;;6.33;4.00;;;;;;;;6340943;22;45305;-72
2023/10/25 14:13:38;;;;;;;;;0.67;0.67;;;;;;;;6340504;22;45378;-72
2023/10/25 14:16:07;;;;;;;;;1.00;1.00;;;;;;;;6311891;22;48315;-71
2023/10/25 14:18:32;;;;;;;;;1.00;1.00;;;;;;;;6340543;22;45163;-73
2023/10/25 14:20:57;;;;;;;;;2.00;2.00;;;;;;;;6339332;22;45222;-73
2023/10/25 14:23:22;;;;;;;;;0.00;0.00;;;;;;;;6340310;22;45208;-73
2023/10/25 14:25:48;;;;;;;;;1.00;1.00;;;;;;;;6340822;22;45316;-73
2023/10/25 14:28:13;;;;;;;;;1.33;1.00;;;;;;;;6338286;22;45296;-73
2023/10/25 14:30:39;;;;;;;;;1.00;1.00;;;;;;;;6312706;22;45330;-73
2023/10/25 14:33:05;;;;;;;;;0.33;0.33;;;;;;;;6340351;22;45197;-73
2023/10/25 14:35:32;;;;;;;;;1.00;1.00;;;;;;;;6340871;22;45207;-72
2023/10/25 14:37:57;;;;;;;;;0.67;0.00;;;;;;;;6311642;22;45331;-73
2023/10/25 14:40:22;;;;;;;;;3.00;1.00;;;;;;;;6341047;22;45222;-73
2023/10/25 14:42:47;;;;;;;;;0.00;0.00;;;;;;;;6340534;22;45171;-72
2023/10/25 14:45:13;;;;;;;;;0.00;0.00;;;;;;;;6338692;22;45264;-72
2023/10/25 14:47:38;;;;;;;;;1.00;1.00;;;;;;;;6340467;22;45211;-72
2023/10/25 14:50:03;;;;;;;;;0.33;0.33;;;;;;;;6341173;22;45172;-72
2023/10/25 14:52:28;;;;;;;;;0.67;0.67;;;;;;;;6311106;22;45910;-72
2023/10/25 14:54:54;;;;;;;;;0.67;0.67;;;;;;;;6311930;22;46854;-72
2023/10/25 14:57:19;;;;;;;;;1.33;1.33;;;;;;;;6338012;22;44722;-72
2023/10/25 14:59:44;;;;;;;;;1.00;1.00;;;;;;;;6341083;22;45203;-72
2023/10/25 15:02:09;;;;;;;;;1.33;1.33;;;;;;;;6311880;22;45672;-73
2023/10/25 15:04:35;;;;;;;;;0.00;0.00;;;;;;;;6312177;22;46721;-73
2023/10/25 15:07:00;;;;;;;;;1.00;1.00;;;;;;;;6311719;22;45286;-73
2023/10/25 15:09:25;;;;;;;;;2.00;1.00;;;;;;;;6340058;22;45199;-73
2023/10/25 15:11:50;;;;;;;;;0.33;0.33;;;;;;;;6340181;22;45306;-72
2023/10/25 15:14:16;;;;;;;;;1.00;1.00;;;;;;;;6340701;22;45336;-73
2023/10/25 15:16:42;;;;;;;;;0.67;0.67;;;;;;;;6339648;22;45216;-73
2023/10/25 15:19:07;;;;;;;;;1.00;1.00;;;;;;;;6336928;22;45365;-72
2023/10/25 15:21:32;;;;;;;;;0.00;0.00;;;;;;;;6339874;22;45181;-72
2023/10/25 15:23:58;;;;;;;;;1.67;1.67;;;;;;;;6340176;22;45166;-72
2023/10/25 15:26:23;;;;;;;;;0.00;0.00;;;;;;;;6340770;22;45243;-72
2023/10/25 15:28:48;;;;;;;;;0.00;0.00;;;;;;;;6338579;22;45275;-72
2023/10/25 15:31:18;;;;;;;;;0.00;0.00;;;;;;;;6339861;22;45179;-72
2023/10/25 15:33:43;;;;;;;;;0.33;0.33;;;;;;;;6339971;22;45266;-72
2023/10/25 15:36:08;;;;;;;;;0.00;0.00;;;;;;;;6311759;22;45254;-72
2023/10/25 15:38:36;;;;;;;;;1.00;1.00;;;;;;;;6338199;22;45361;-72
2023/10/25 15:41:18;;;;;;;;;0.00;0.00;;;;;;;;6340355;22;45475;-72
2023/10/25 15:43:43;;;;;;;;;0.33;0.33;;;;;;;;6340208;22;45270;-72
2023/10/25 15:46:09;;;;;;;;;0.00;0.00;;;;;;;;6340961;22;45307;-72
2023/10/25 15:48:44;;;;;;;;;0.00;0.00;;;;;;;;6340603;22;45237;-72
2023/10/25 15:51:12;;;;;;;;;3.00;0.00;;;;;;;;6340077;22;45638;-72
2023/10/25 15:53:37;;;;;;;;;1.00;1.00;;;;;;;;6338348;22;45368;-72
2023/10/25 15:56:03;;;;;;;;;2.00;1.00;;;;;;;;6339985;22;45309;-71
2023/10/25 15:58:28;;;;;;;;;1.00;1.00;;;;;;;;6340497;22;45150;-72
2023/10/25 16:00:54;;;;;;;;;1.00;1.00;;;;;;;;6340764;22;45405;-72
2023/10/25 16:03:19;;;;;;;;;0.00;0.00;;;;;;;;6340289;22;45395;-72
2023/10/25 16:05:44;;;;;;;;;0.00;0.00;;;;;;;;6340251;22;45282;-72
2023/10/25 16:08:09;;;;;;;;;0.00;0.00;;;;;;;;6339650;22;45145;-72
2023/10/25 16:10:34;;;;;;;;;0.00;0.00;;;;;;;;6340567;22;45169;-73
2023/10/25 16:13:00;;;;;;;;;0.00;0.00;;;;;;;;6340000;22;45492;-73
2023/10/25 16:15:25;;;;;;;;;0.00;0.00;;;;;;;;6340756;22;45226;-72
2023/10/25 16:17:51;;;;;;;;;0.00;0.00;;;;;;;;6339030;22;45210;-72
2023/10/25 16:20:16;;;;;;;;;0.00;0.00;;;;;;;;6339115;22;45459;-72
2023/10/25 16:22:43;;;;;;;;;0.67;0.67;;;;;;;;6310547;22;47094;-72
2023/10/25 16:25:09;;;;;;;;;0.33;0.33;;;;;;;;6338723;22;45200;-72
2023/10/25 16:27:34;;;;;;;;;0.67;0.67;;;;;;;;6310754;22;45290;-72
2023/10/25 16:29:59;;;;;;;;;1.00;1.00;;;;;;;;6340332;22;45291;-72
2023/10/25 16:32:24;;;;;;;;;1.00;1.00;;;;;;;;6339633;22;45432;-72
2023/10/25 16:34:50;;;;;;;;;1.00;1.00;;;;;;;;6340493;22;45293;-72
2023/10/25 16:37:15;;;;;;;;;0.67;0.67;;;;;;;;6339656;22;45086;-72
2023/10/25 16:39:40;;;;;;;;;0.00;0.00;;;;;;;;6340684;22;45238;-72
2023/10/25 16:42:05;;;;;;;;;0.00;0.00;;;;;;;;6340087;22;45367;-73
2023/10/25 16:44:31;;;;;;;;;0.33;0.33;;;;;;;;6311209;22;45275;-72
2023/10/25 16:46:56;;;;;;;;;2.33;2.33;;;;;;;;6340082;22;45218;-72
2023/10/25 16:49:21;;;;;;;;;1.33;0.33;;;;;;;;6340198;22;45160;-73
2023/10/25 16:51:47;;;;;;;;;1.33;1.00;;;;;;;;6338972;22;46160;-72
2023/10/25 16:54:12;;;;;;;;;2.00;1.00;;;;;;;;6340504;22;45112;-72
2023/10/25 16:56:37;;;;;;;;;1.00;1.00;;;;;;;;6339948;22;45283;-72
2023/10/25 16:59:03;;;;;;;;;1.67;1.67;;;;;;;;6311679;22;46668;-72
2023/10/25 17:01:28;;;;;;;;;1.00;1.00;;;;;;;;6311120;22;46683;-73
2023/10/25 17:03:53;;;;;;;;;4.67;2.00;;;;;;;;6339625;22;45191;-72
2023/10/25 17:06:18;;;;;;;;;4.00;4.00;;;;;;;;6340004;22;45222;-72
2023/10/25 17:08:43;;;;;;;;;7.67;6.00;;;;;;;;6339176;22;45223;-72
2023/10/25 17:11:09;;;;;;;;;3.00;3.00;;;;;;;;6338996;22;46340;-74
2023/10/25 17:13:35;;;;;;;;;3.33;1.00;;;;;;;;6337504;22;45085;-74
2023/10/25 17:16:01;;;;;;;;;1.00;1.00;;;;;;;;6339787;22;45237;-73
2023/10/25 17:18:27;;;;;;;;;1.00;1.00;;;;;;;;6338358;22;45300;-74
2023/10/25 17:20:53;;;;;;;;;1.33;1.33;;;;;;;;6339780;22;45195;-74
2023/10/25 17:23:20;;;;;;;;;14.33;13.33;;;;;;;;6310283;22;45614;-74
2023/10/25 17:25:45;;;;;;;;;4.67;4.67;;;;;;;;6340826;22;44645;-74
2023/10/25 17:28:10;;;;;;;;;4.00;3.00;;;;;;;;6317840;22;47046;-73
2023/10/25 17:30:36;;;;;;;;;3.00;2.00;;;;;;;;6344819;22;45271;-73
2023/10/25 17:33:01;;;;;;;;;9.33;7.00;;;;;;;;6341378;22;45203;-74
2023/10/25 17:35:27;;;;;;;;;5.00;4.00;;;;;;;;6340693;22;45507;-73
2023/10/25 17:37:52;;;;;;;;;12.00;11.00;;;;;;;;6310773;22;45351;-73
2023/10/25 17:40:18;;;;;;;;;10.33;8.00;;;;;;;;6340164;22;46117;-73
2023/10/25 17:42:43;;;;;;;;;8.67;7.67;;;;;;;;6339239;22;45254;-72
2023/10/25 17:45:08;;;;;;;;;18.33;16.67;;;;;;;;6311406;22;45169;-74
2023/10/25 17:47:46;;;;;;;;;15.00;15.00;;;;;;;;6339275;22;45421;-74
2023/10/25 17:50:11;;;;;;;;;8.00;6.67;;;;;;;;6339982;22;45218;-73
2023/10/25 17:52:36;;;;;;;;;4.33;4.33;;;;;;;;6337550;22;45307;-73
2023/10/25 17:55:02;;;;;;;;;4.67;3.00;;;;;;;;6339919;22;45305;-73
2023/10/25 17:57:28;;;;;;;;;4.67;3.00;;;;;;;;6339588;22;45456;-73
2023/10/25 17:59:53;;;;;;;;;3.33;2.00;;;;;;;;6311400;22;48599;-75
2023/10/25 18:02:18;;;;;;;;;3.00;3.00;;;;;;;;6338845;22;45282;-73
2023/10/25 18:04:43;;;;;;;;;3.00;3.00;;;;;;;;6340052;22;45194;-72
2023/10/25 18:07:08;;;;;;;;;1.00;1.00;;;;;;;;6339843;22;45310;-74
2023/10/25 18:09:34;;;;;;;;;2.00;2.00;;;;;;;;6341245;22;45490;-72
2023/10/25 18:11:59;;;;;;;;;1.00;1.00;;;;;;;;6341056;22;45334;-72
2023/10/25 18:14:25;;;;;;;;;3.00;3.00;;;;;;;;6341002;22;45219;-71
2023/10/25 18:16:50;;;;;;;;;0.00;0.00;;;;;;;;6340991;22;45273;-73
2023/10/25 18:19:17;;;;;;;;;3.33;3.33;;;;;;;;6341048;22;45266;-73
2023/10/25 18:21:42;;;;;;;;;3.67;3.67;;;;;;;;6340543;22;45097;-73
2023/10/25 18:24:07;;;;;;;;;3.33;3.33;;;;;;;;6340950;22;45144;-74
2023/10/25 18:26:34;;;;;;;;;7.00;4.00;;;;;;;;6340955;22;44708;-74
2023/10/25 18:28:59;;;;;;;;;2.67;2.67;;;;;;;;6341257;22;45907;-73
2023/10/25 18:31:26;;;;;;;;;3.67;3.00;;;;;;;;6341159;22;45177;-73
2023/10/25 18:33:52;;;;;;;;;0.67;0.67;;;;;;;;6340714;22;45282;-73
2023/10/25 18:36:17;;;;;;;;;3.00;3.00;;;;;;;;6340376;22;45250;-73
2023/10/25 18:38:42;;;;;;;;;3.00;3.00;;;;;;;;6340693;22;45500;-72
2023/10/25 18:41:08;;;;;;;;;4.00;4.00;;;;;;;;6340711;22;45195;-72
2023/10/25 18:43:33;;;;;;;;;3.67;3.67;;;;;;;;6340347;22;45365;-72
2023/10/25 18:46:04;;;;;;;;;3.00;3.00;;;;;;;;6340929;22;45250;-73
2023/10/25 18:48:29;;;;;;;;;5.00;5.00;;;;;;;;6311577;22;47011;-72
2023/10/25 18:50:58;;;;;;;;;3.00;3.00;;;;;;;;6340646;22;45218;-73
2023/10/25 18:53:24;;;;;;;;;6.67;4.67;;;;;;;;6340464;22;45242;-72
2023/10/25 18:55:57;;;;;;;;;12.33;11.33;;;;;;;;6341045;22;45246;-72
2023/10/25 18:58:22;;;;;;;;;5.33;4.33;;;;;;;;6340877;22;45377;-73
2023/10/25 19:00:47;;;;;;;;;8.00;6.00;;;;;;;;6340967;22;45159;-72
2023/10/25 19:03:14;;;;;;;;;48.75;38.75;;;;;;;;6340611;22;45171;-72
2023/10/25 19:05:39;;;;;;;;;42.00;35.25;;;;;;;;6311683;22;46400;-72
2023/10/25 19:08:04;;;;;;;;;21.33;20.33;;;;;;;;6339147;22;45261;-73
2023/10/25 19:10:30;;;;;;;;;12.00;10.33;;;;;;;;6340930;22;45226;-73
2023/10/25 19:12:55;;;;;;;;;9.00;6.00;;;;;;;;6340234;22;45283;-74
2023/10/25 19:15:20;;;;;;;;;5.00;5.00;;;;;;;;6312797;22;45911;-74
2023/10/25 19:17:45;;;;;;;;;6.00;4.67;;;;;;;;6340375;22;46301;-72
2023/10/25 19:20:11;;;;;;;;;7.33;5.33;;;;;;;;6341126;22;45230;-72
2023/10/25 19:22:36;;;;;;;;;5.33;4.00;;;;;;;;6340269;22;45357;-72
2023/10/25 19:25:01;;;;;;;;;4.33;4.33;;;;;;;;6341111;22;45266;-73
2023/10/25 19:27:26;;;;;;;;;6.67;6.33;;;;;;;;6340700;22;45420;-73
2023/10/25 19:29:51;;;;;;;;;4.33;4.33;;;;;;;;6338114;22;45248;-72
2023/10/25 19:32:17;;;;;;;;;7.00;3.00;;;;;;;;6339245;22;45459;-72
2023/10/25 19:34:42;;;;;;;;;2.00;2.00;;;;;;;;6340625;22;45093;-72
2023/10/25 19:37:07;;;;;;;;;4.00;4.00;;;;;;;;6340161;22;45899;-72
2023/10/25 19:39:32;;;;;;;;;4.67;4.00;;;;;;;;6340780;22;45194;-72
2023/10/25 19:41:58;;;;;;;;;6.00;3.00;;;;;;;;6340755;22;45148;-72
2023/10/25 19:44:24;;;;;;;;;3.00;3.00;;;;;;;;6340047;22;45184;-72
2023/10/25 19:46:49;;;;;;;;;5.00;4.00;;;;;;;;6311820;22;45254;-72
2023/10/25 19:49:16;;;;;;;;;4.00;4.00;;;;;;;;6340731;22;45202;-71
2023/10/25 19:51:43;;;;;;;;;7.00;6.67;;;;;;;;6340461;22;45259;-72
2023/10/25 19:54:10;;;;;;;;;8.00;5.00;;;;;;;;6340420;22;45262;-72
2023/10/25 19:56:36;;;;;;;;;6.00;6.00;;;;;;;;6340115;22;45319;-72
2023/10/25 19:59:01;;;;;;;;;8.00;6.33;;;;;;;;6340820;22;45339;-72
2023/10/25 20:01:26;;;;;;;;;7.67;6.00;;;;;;;;6340780;22;45184;-72
2023/10/25 20:03:51;;;;;;;;;7.33;7.33;;;;;;;;6340223;22;45281;-71
2023/10/25 20:06:18;;;;;;;;;8.00;7.00;;;;;;;;6340047;22;46374;-73
2023/10/25 20:08:48;;;;;;;;;7.00;7.00;;;;;;;;6310436;22;45238;-74
2023/10/25 20:11:13;;;;;;;;;5.67;5.00;;;;;;;;6338760;22;45306;-72
2023/10/25 20:13:39;;;;;;;;;4.33;4.33;;;;;;;;6340109;22;45406;-73
2023/10/25 20:16:04;;;;;;;;;4.33;3.00;;;;;;;;6340391;22;46541;-73
2023/10/25 20:18:29;;;;;;;;;4.00;4.00;;;;;;;;6310925;22;44746;-72
2023/10/25 20:20:55;;;;;;;;;4.00;3.33;;;;;;;;6311651;22;45286;-72
2023/10/25 20:23:20;;;;;;;;;4.33;3.33;;;;;;;;6310706;22;45658;-72
2023/10/25 20:25:51;;;;;;;;;4.00;4.00;;;;;;;;6339673;22;45345;-70
2023/10/25 20:28:17;;;;;;;;;5.33;4.67;;;;;;;;6311900;22;45662;-71
2023/10/25 20:30:42;;;;;;;;;6.00;4.00;;;;;;;;6311346;22;45355;-71
2023/10/25 20:33:08;;;;;;;;;5.00;5.00;;;;;;;;6312069;22;46020;-71
2023/10/25 20:35:36;;;;;;;;;5.00;5.00;;;;;;;;6340304;22;45303;-73
2023/10/25 20:38:02;;;;;;;;;25.25;17.00;;;;;;;;6340103;22;45278;-74
2023/10/25 20:40:27;;;;;;;;;4.00;4.00;;;;;;;;6311539;22;45165;-72
2023/10/25 20:42:52;;;;;;;;;24.00;20.50;;;;;;;;6340225;22;45124;-71
